Avon, CO (81620)

05:35 AM MDT em 27 de Maio de 2015 (GMT -0600)
WildRidge-2 | | Change Station
CLOSE
Current Station
Estação Meteorológica Particular
Location: Edwards, CO
Altitude: 8235 ft
Estações Meteorológicas Próximas

Elev 8235 ft 39.66 °N, 106.55 °W | Updated 8 minutes ago

Céu Encoberto
Céu Encoberto
40.1 °F
Aparente 40 °F
N
0.0
Vento Variável Vento de ONO

Hoje
Máxima -- | Mínima -- °F
--% Possibilidade de Precip.
Ontem
Máxima -- | Mínima -- °F
Precip. -- pol
5:42 AM 8:23 PM
Lua crescente, 66% visible
Pressão 30.20 pol
Visibilidade 10.0 milhas
Nuvens Muito Nublado 6000 ft
Muito Nublado 11000 ft
Sensação Térmica 40 °F
Ponto de Orvalho 37 °F
Humidade 88%
Chuva 0.00 pol
Altura de Neve Não disponível
UV 0 em vez de 12
Pólen 8.00 em vez de 12
Qualidade do Ar Não disponível
Flu Activity Sporadic
METAR KEGE 271115Z AUTO 00000KT 10SM BKN060 BKN110 07/06 A3020 RMK AO1

More Conditions Fewer Conditions

Pressão 30.20 pol
Visibilidade 10.0 milhas
Nuvens Muito Nublado 6000 ft
Muito Nublado 11000 ft
Sensação Térmica 40 °F
Ponto de Orvalho 37 °F
Humidade 88%
Chuva 0.00 pol
Altura de Neve Não disponível
UV 0 em vez de 12
Pólen 8.00 em vez de 12
Qualidade do Ar Não disponível
Flu Activity Sporadic
METAR KEGE 271115Z AUTO 00000KT 10SM BKN060 BKN110 07/06 A3020 RMK AO1

More Conditions Fewer Conditions

10-Day Weather Forecast

Almanac

Astronomia

May. 27, 2015 Nascer Pôr
Hora atual
Crepúsculo civil
Crepúsculo náutico
Crepúsculo astronómico
Lua
Comprimento da luz visível
Duração do Dia
Tomorrow will be .
, % of the Moon is Illuminated

Extremos de Hoje

situação na parte mais alta situação na parte mais baixa

Community

WunderPhotos

Upload Photos

1,824,641 fotografias inseridas!

WunderBlogs® & News

Nearby

Qualidade do Ar

  Qualidade do Ar Índice da Q.A. Poluente
Not available.

Altura da Neve

Estação altura Altitude

Actividade Sísmisca

Cidade Distância Mag. Hora & Data
Mínima magnitude apresentada é 2.5.

Temperaturas das Águas Costeiras

Local Temperatura

Stations

Estações Meteorológicas Próximas

Localização da Estação Temp. Sensação Térmica Ponto de Orvalho Humidade Vento Precip. Elev Actualizado Tipo